sensor_id;sensor_type;location;lat;lon;timestamp;P1;durP1;ratioP1;P2;durP2;ratioP2
77520;SDS011;66633;47.628;19.158;2023-11-21T00:01:52;20.90;;;11.75;;
77520;SDS011;66633;47.628;19.158;2023-11-21T00:04:18;20.13;;;13.33;;
77520;SDS011;66633;47.628;19.158;2023-11-21T00:06:43;22.67;;;12.13;;
77520;SDS011;66633;47.628;19.158;2023-11-21T00:09:12;23.58;;;13.55;;
77520;SDS011;66633;47.628;19.158;2023-11-21T00:11:38;23.73;;;13.88;;
77520;SDS011;66633;47.628;19.158;2023-11-21T00:14:03;29.38;;;15.90;;
77520;SDS011;66633;47.628;19.158;2023-11-21T00:16:28;26.73;;;16.67;;
77520;SDS011;66633;47.628;19.158;2023-11-21T00:18:54;22.17;;;14.07;;
77520;SDS011;66633;47.628;19.158;2023-11-21T00:21:20;24.90;;;14.02;;
77520;SDS011;66633;47.628;19.158;2023-11-21T00:23:45;24.17;;;13.90;;
77520;SDS011;66633;47.628;19.158;2023-11-21T00:26:10;22.73;;;12.97;;
77520;SDS011;66633;47.628;19.158;2023-11-21T00:28:35;19.17;;;11.83;;
77520;SDS011;66633;47.628;19.158;2023-11-21T00:31:01;20.65;;;11.57;;
77520;SDS011;66633;47.628;19.158;2023-11-21T00:33:26;18.80;;;11.90;;
77520;SDS011;66633;47.628;19.158;2023-11-21T00:35:52;20.65;;;11.27;;
77520;SDS011;66633;47.628;19.158;2023-11-21T00:38:17;16.70;;;10.03;;
77520;SDS011;66633;47.628;19.158;2023-11-21T00:40:45;18.60;;;10.70;;
77520;SDS011;66633;47.628;19.158;2023-11-21T00:43:10;16.10;;;10.15;;
77520;SDS011;66633;47.628;19.158;2023-11-21T00:45:35;17.05;;;9.63;;
77520;SDS011;66633;47.628;19.158;2023-11-21T00:48:01;17.25;;;9.80;;
77520;SDS011;66633;47.628;19.158;2023-11-21T00:50:27;18.65;;;10.35;;
77520;SDS011;66633;47.628;19.158;2023-11-21T00:52:52;22.38;;;11.93;;
77520;SDS011;66633;47.628;19.158;2023-11-21T00:55:17;18.00;;;10.85;;
77520;SDS011;66633;47.628;19.158;2023-11-21T00:57:43;19.00;;;10.55;;
77520;SDS011;66633;47.628;19.158;2023-11-21T01:00:08;19.58;;;11.25;;
77520;SDS011;66633;47.628;19.158;2023-11-21T01:02:42;20.08;;;11.18;;
77520;SDS011;66633;47.628;19.158;2023-11-21T01:05:08;20.98;;;10.85;;
77520;SDS011;66633;47.628;19.158;2023-11-21T01:07:34;23.70;;;13.27;;
77520;SDS011;66633;47.628;19.158;2023-11-21T01:09:59;25.40;;;14.13;;
77520;SDS011;66633;47.628;19.158;2023-11-21T01:12:24;20.13;;;11.00;;
77520;SDS011;66633;47.628;19.158;2023-11-21T01:14:50;20.35;;;12.38;;
77520;SDS011;66633;47.628;19.158;2023-11-21T01:17:15;20.20;;;10.60;;
77520;SDS011;66633;47.628;19.158;2023-11-21T01:19:41;22.15;;;11.57;;
77520;SDS011;66633;47.628;19.158;2023-11-21T01:22:06;20.17;;;11.60;;
77520;SDS011;66633;47.628;19.158;2023-11-21T01:24:32;20.30;;;10.43;;
77520;SDS011;66633;47.628;19.158;2023-11-21T01:26:57;18.63;;;10.52;;
77520;SDS011;66633;47.628;19.158;2023-11-21T01:29:22;20.13;;;10.30;;
77520;SDS011;66633;47.628;19.158;2023-11-21T01:31:47;19.33;;;10.83;;
77520;SDS011;66633;47.628;19.158;2023-11-21T01:34:13;24.25;;;14.38;;
77520;SDS011;66633;47.628;19.158;2023-11-21T01:36:39;32.67;;;17.63;;
77520;SDS011;66633;47.628;19.158;2023-11-21T01:39:04;29.00;;;16.90;;
77520;SDS011;66633;47.628;19.158;2023-11-21T01:41:33;26.65;;;15.95;;
77520;SDS011;66633;47.628;19.158;2023-11-21T01:43:58;25.38;;;13.07;;
77520;SDS011;66633;47.628;19.158;2023-11-21T01:46:24;25.87;;;13.77;;
77520;SDS011;66633;47.628;19.158;2023-11-21T01:48:49;24.33;;;13.63;;
77520;SDS011;66633;47.628;19.158;2023-11-21T01:51:15;21.17;;;12.93;;
77520;SDS011;66633;47.628;19.158;2023-11-21T01:53:41;25.58;;;13.65;;
77520;SDS011;66633;47.628;19.158;2023-11-21T01:56:06;22.33;;;12.80;;
77520;SDS011;66633;47.628;19.158;2023-11-21T01:58:33;19.95;;;12.13;;
77520;SDS011;66633;47.628;19.158;2023-11-21T02:00:58;18.45;;;11.25;;
77520;SDS011;66633;47.628;19.158;2023-11-21T02:03:24;18.88;;;11.52;;
77520;SDS011;66633;47.628;19.158;2023-11-21T02:05:49;19.65;;;10.98;;
77520;SDS011;66633;47.628;19.158;2023-11-21T02:08:14;17.87;;;10.03;;
77520;SDS011;66633;47.628;19.158;2023-11-21T02:10:40;20.58;;;10.27;;
77520;SDS011;66633;47.628;19.158;2023-11-21T02:13:05;16.00;;;9.13;;
77520;SDS011;66633;47.628;19.158;2023-11-21T02:15:31;16.20;;;10.02;;
77520;SDS011;66633;47.628;19.158;2023-11-21T02:17:56;17.88;;;9.60;;
77520;SDS011;66633;47.628;19.158;2023-11-21T02:20:23;15.32;;;9.52;;
77520;SDS011;66633;47.628;19.158;2023-11-21T02:25:14;18.60;;;11.30;;
77520;SDS011;66633;47.628;19.158;2023-11-21T02:27:40;18.15;;;10.65;;
77520;SDS011;66633;47.628;19.158;2023-11-21T02:30:05;15.87;;;9.07;;
77520;SDS011;66633;47.628;19.158;2023-11-21T02:32:32;16.98;;;9.43;;
77520;SDS011;66633;47.628;19.158;2023-11-21T02:34:57;16.73;;;9.17;;
77520;SDS011;66633;47.628;19.158;2023-11-21T02:37:26;16.33;;;8.80;;
77520;SDS011;66633;47.628;19.158;2023-11-21T02:39:51;13.27;;;8.02;;
77520;SDS011;66633;47.628;19.158;2023-11-21T02:42:17;15.40;;;9.10;;
77520;SDS011;66633;47.628;19.158;2023-11-21T02:44:42;16.95;;;9.98;;
77520;SDS011;66633;47.628;19.158;2023-11-21T02:47:08;16.47;;;9.57;;
77520;SDS011;66633;47.628;19.158;2023-11-21T02:49:33;14.95;;;8.98;;
77520;SDS011;66633;47.628;19.158;2023-11-21T02:52:01;16.15;;;9.23;;
77520;SDS011;66633;47.628;19.158;2023-11-21T02:54:26;15.88;;;9.50;;
77520;SDS011;66633;47.628;19.158;2023-11-21T02:56:52;18.88;;;9.98;;
77520;SDS011;66633;47.628;19.158;2023-11-21T02:59:17;16.53;;;9.40;;
77520;SDS011;66633;47.628;19.158;2023-11-21T03:01:42;16.27;;;9.50;;
77520;SDS011;66633;47.628;19.158;2023-11-21T03:04:07;16.60;;;9.50;;
77520;SDS011;66633;47.628;19.158;2023-11-21T03:06:33;18.63;;;10.10;;
77520;SDS011;66633;47.628;19.158;2023-11-21T03:08:58;17.60;;;9.85;;
77520;SDS011;66633;47.628;19.158;2023-11-21T03:11:24;16.27;;;9.20;;
77520;SDS011;66633;47.628;19.158;2023-11-21T03:13:49;15.50;;;8.90;;
77520;SDS011;66633;47.628;19.158;2023-11-21T03:16:15;15.48;;;8.75;;
77520;SDS011;66633;47.628;19.158;2023-11-21T03:18:40;18.35;;;8.93;;
77520;SDS011;66633;47.628;19.158;2023-11-21T03:21:06;18.27;;;10.27;;
77520;SDS011;66633;47.628;19.158;2023-11-21T03:23:33;18.48;;;9.75;;
77520;SDS011;66633;47.628;19.158;2023-11-21T03:25:59;15.65;;;9.23;;
77520;SDS011;66633;47.628;19.158;2023-11-21T03:28:25;15.77;;;9.07;;
77520;SDS011;66633;47.628;19.158;2023-11-21T03:30:50;16.95;;;9.40;;
77520;SDS011;66633;47.628;19.158;2023-11-21T03:33:15;16.20;;;8.50;;
77520;SDS011;66633;47.628;19.158;2023-11-21T03:35:41;15.05;;;8.70;;
77520;SDS011;66633;47.628;19.158;2023-11-21T03:38:07;16.25;;;9.27;;
77520;SDS011;66633;47.628;19.158;2023-11-21T03:40:32;16.80;;;9.15;;
77520;SDS011;66633;47.628;19.158;2023-11-21T03:42:58;15.48;;;8.32;;
77520;SDS011;66633;47.628;19.158;2023-11-21T03:45:23;19.25;;;9.73;;
77520;SDS011;66633;47.628;19.158;2023-11-21T03:47:49;15.43;;;8.50;;
77520;SDS011;66633;47.628;19.158;2023-11-21T03:50:14;16.38;;;9.77;;
77520;SDS011;66633;47.628;19.158;2023-11-21T03:52:40;14.93;;;8.25;;
77520;SDS011;66633;47.628;19.158;2023-11-21T03:55:05;17.13;;;8.07;;
77520;SDS011;66633;47.628;19.158;2023-11-21T03:57:30;13.50;;;8.20;;
77520;SDS011;66633;47.628;19.158;2023-11-21T03:59:55;17.00;;;8.67;;
77520;SDS011;66633;47.628;19.158;2023-11-21T04:02:21;11.67;;;7.73;;
77520;SDS011;66633;47.628;19.158;2023-11-21T04:04:46;13.43;;;7.82;;
77520;SDS011;66633;47.628;19.158;2023-11-21T04:07:12;15.10;;;8.55;;
77520;SDS011;66633;47.628;19.158;2023-11-21T04:09:38;15.68;;;8.80;;
77520;SDS011;66633;47.628;19.158;2023-11-21T04:12:04;14.00;;;9.35;;
77520;SDS011;66633;47.628;19.158;2023-11-21T04:14:29;19.52;;;11.30;;
77520;SDS011;66633;47.628;19.158;2023-11-21T04:16:55;20.83;;;12.48;;
77520;SDS011;66633;47.628;19.158;2023-11-21T04:19:20;25.10;;;13.87;;
77520;SDS011;66633;47.628;19.158;2023-11-21T04:21:45;19.30;;;11.93;;
77520;SDS011;66633;47.628;19.158;2023-11-21T04:24:11;18.20;;;10.27;;
77520;SDS011;66633;47.628;19.158;2023-11-21T04:26:36;20.00;;;10.30;;
77520;SDS011;66633;47.628;19.158;2023-11-21T04:29:01;18.07;;;11.07;;
77520;SDS011;66633;47.628;19.158;2023-11-21T04:31:26;16.77;;;9.40;;
77520;SDS011;66633;47.628;19.158;2023-11-21T04:33:52;18.80;;;10.57;;
77520;SDS011;66633;47.628;19.158;2023-11-21T04:36:17;20.10;;;10.67;;
77520;SDS011;66633;47.628;19.158;2023-11-21T04:38:42;17.40;;;10.75;;
77520;SDS011;66633;47.628;19.158;2023-11-21T04:41:08;18.58;;;10.85;;
77520;SDS011;66633;47.628;19.158;2023-11-21T04:43:33;19.48;;;10.07;;
77520;SDS011;66633;47.628;19.158;2023-11-21T04:45:58;21.27;;;12.23;;
77520;SDS011;66633;47.628;19.158;2023-11-21T04:48:23;20.50;;;12.48;;
77520;SDS011;66633;47.628;19.158;2023-11-21T04:50:49;20.97;;;12.33;;
77520;SDS011;66633;47.628;19.158;2023-11-21T04:53:14;18.27;;;11.57;;
77520;SDS011;66633;47.628;19.158;2023-11-21T04:55:40;18.95;;;12.38;;
77520;SDS011;66633;47.628;19.158;2023-11-21T04:58:05;17.60;;;10.25;;
77520;SDS011;66633;47.628;19.158;2023-11-21T05:00:30;15.75;;;9.65;;
77520;SDS011;66633;47.628;19.158;2023-11-21T05:02:55;21.57;;;12.33;;
77520;SDS011;66633;47.628;19.158;2023-11-21T05:05:21;19.20;;;11.10;;
77520;SDS011;66633;47.628;19.158;2023-11-21T05:07:46;20.35;;;11.95;;
77520;SDS011;66633;47.628;19.158;2023-11-21T05:10:11;22.77;;;11.40;;
77520;SDS011;66633;47.628;19.158;2023-11-21T05:12:39;24.52;;;13.48;;
77520;SDS011;66633;47.628;19.158;2023-11-21T05:15:05;27.98;;;15.80;;
77520;SDS011;66633;47.628;19.158;2023-11-21T05:17:36;30.23;;;16.85;;
77520;SDS011;66633;47.628;19.158;2023-11-21T05:20:03;34.47;;;20.00;;
77520;SDS011;66633;47.628;19.158;2023-11-21T05:22:29;36.15;;;20.60;;
77520;SDS011;66633;47.628;19.158;2023-11-21T05:24:54;32.92;;;19.23;;
77520;SDS011;66633;47.628;19.158;2023-11-21T05:27:20;39.53;;;19.80;;
77520;SDS011;66633;47.628;19.158;2023-11-21T05:29:45;38.50;;;22.55;;
77520;SDS011;66633;47.628;19.158;2023-11-21T05:32:10;33.60;;;19.87;;
77520;SDS011;66633;47.628;19.158;2023-11-21T05:34:36;33.38;;;18.48;;
77520;SDS011;66633;47.628;19.158;2023-11-21T05:37:01;29.67;;;16.80;;
77520;SDS011;66633;47.628;19.158;2023-11-21T05:39:26;25.80;;;14.67;;
77520;SDS011;66633;47.628;19.158;2023-11-21T05:41:52;26.50;;;13.68;;
77520;SDS011;66633;47.628;19.158;2023-11-21T05:44:18;29.42;;;16.58;;
77520;SDS011;66633;47.628;19.158;2023-11-21T05:46:43;28.97;;;17.07;;
77520;SDS011;66633;47.628;19.158;2023-11-21T05:49:09;24.83;;;15.47;;
77520;SDS011;66633;47.628;19.158;2023-11-21T05:51:34;26.98;;;14.70;;
77520;SDS011;66633;47.628;19.158;2023-11-21T05:53:59;20.40;;;13.17;;
77520;SDS011;66633;47.628;19.158;2023-11-21T05:56:24;22.07;;;13.60;;
77520;SDS011;66633;47.628;19.158;2023-11-21T05:58:50;22.03;;;12.43;;
77520;SDS011;66633;47.628;19.158;2023-11-21T06:01:16;19.55;;;11.45;;
77520;SDS011;66633;47.628;19.158;2023-11-21T06:03:41;18.85;;;10.65;;
77520;SDS011;66633;47.628;19.158;2023-11-21T06:06:06;18.37;;;10.70;;
77520;SDS011;66633;47.628;19.158;2023-11-21T06:08:32;17.20;;;11.20;;
77520;SDS011;66633;47.628;19.158;2023-11-21T06:10:57;17.33;;;10.70;;
77520;SDS011;66633;47.628;19.158;2023-11-21T06:13:22;19.20;;;11.73;;
77520;SDS011;66633;47.628;19.158;2023-11-21T06:15:49;18.40;;;9.90;;
77520;SDS011;66633;47.628;19.158;2023-11-21T06:18:15;20.75;;;11.40;;
77520;SDS011;66633;47.628;19.158;2023-11-21T06:20:40;73.50;;;32.97;;
77520;SDS011;66633;47.628;19.158;2023-11-21T06:23:05;85.30;;;41.53;;
77520;SDS011;66633;47.628;19.158;2023-11-21T06:25:31;56.03;;;32.63;;
77520;SDS011;66633;47.628;19.158;2023-11-21T06:27:58;66.75;;;37.42;;
77520;SDS011;66633;47.628;19.158;2023-11-21T06:30:23;68.43;;;38.28;;
77520;SDS011;66633;47.628;19.158;2023-11-21T06:32:49;58.87;;;33.53;;
77520;SDS011;66633;47.628;19.158;2023-11-21T06:35:16;46.88;;;28.83;;
77520;SDS011;66633;47.628;19.158;2023-11-21T06:37:41;36.67;;;23.88;;
77520;SDS011;66633;47.628;19.158;2023-11-21T06:40:06;35.60;;;21.40;;
77520;SDS011;66633;47.628;19.158;2023-11-21T06:42:32;29.98;;;17.60;;
77520;SDS011;66633;47.628;19.158;2023-11-21T06:44:58;24.88;;;16.27;;
77520;SDS011;66633;47.628;19.158;2023-11-21T06:47:24;20.40;;;13.70;;
77520;SDS011;66633;47.628;19.158;2023-11-21T06:49:53;20.90;;;13.02;;
77520;SDS011;66633;47.628;19.158;2023-11-21T06:52:18;20.92;;;11.57;;
77520;SDS011;66633;47.628;19.158;2023-11-21T06:54:44;20.23;;;11.57;;
77520;SDS011;66633;47.628;19.158;2023-11-21T06:57:10;17.02;;;9.70;;
77520;SDS011;66633;47.628;19.158;2023-11-21T06:59:35;18.60;;;10.00;;
77520;SDS011;66633;47.628;19.158;2023-11-21T07:02:00;17.88;;;11.57;;
77520;SDS011;66633;47.628;19.158;2023-11-21T07:04:26;20.80;;;11.73;;
77520;SDS011;66633;47.628;19.158;2023-11-21T07:06:53;19.08;;;12.32;;
77520;SDS011;66633;47.628;19.158;2023-11-21T07:09:18;19.10;;;12.55;;
77520;SDS011;66633;47.628;19.158;2023-11-21T07:11:47;22.90;;;14.45;;
77520;SDS011;66633;47.628;19.158;2023-11-21T07:14:13;20.92;;;13.30;;
77520;SDS011;66633;47.628;19.158;2023-11-21T07:16:38;23.03;;;13.50;;
77520;SDS011;66633;47.628;19.158;2023-11-21T07:19:04;20.07;;;12.90;;
77520;SDS011;66633;47.628;19.158;2023-11-21T07:21:31;20.65;;;13.38;;
77520;SDS011;66633;47.628;19.158;2023-11-21T07:23:56;18.85;;;11.60;;
77520;SDS011;66633;47.628;19.158;2023-11-21T07:26:21;20.27;;;12.17;;
77520;SDS011;66633;47.628;19.158;2023-11-21T07:28:47;20.15;;;12.48;;
77520;SDS011;66633;47.628;19.158;2023-11-21T07:31:12;22.40;;;13.57;;
77520;SDS011;66633;47.628;19.158;2023-11-21T07:33:38;19.95;;;13.80;;
77520;SDS011;66633;47.628;19.158;2023-11-21T07:36:04;25.63;;;16.83;;
77520;SDS011;66633;47.628;19.158;2023-11-21T07:38:29;25.63;;;16.55;;
77520;SDS011;66633;47.628;19.158;2023-11-21T07:40:54;21.87;;;14.57;;
77520;SDS011;66633;47.628;19.158;2023-11-21T07:43:20;24.55;;;15.70;;
77520;SDS011;66633;47.628;19.158;2023-11-21T07:45:45;27.98;;;17.88;;
77520;SDS011;66633;47.628;19.158;2023-11-21T07:48:10;25.00;;;15.37;;
77520;SDS011;66633;47.628;19.158;2023-11-21T07:50:35;29.00;;;17.60;;
77520;SDS011;66633;47.628;19.158;2023-11-21T07:53:01;27.08;;;16.98;;
77520;SDS011;66633;47.628;19.158;2023-11-21T07:55:26;25.55;;;16.48;;
77520;SDS011;66633;47.628;19.158;2023-11-21T07:57:51;28.33;;;15.38;;
77520;SDS011;66633;47.628;19.158;2023-11-21T08:00:17;25.53;;;14.87;;
77520;SDS011;66633;47.628;19.158;2023-11-21T08:02:42;21.92;;;12.95;;
77520;SDS011;66633;47.628;19.158;2023-11-21T08:05:08;20.23;;;11.73;;
77520;SDS011;66633;47.628;19.158;2023-11-21T08:07:34;18.95;;;11.25;;
77520;SDS011;66633;47.628;19.158;2023-11-21T08:09:59;19.35;;;12.35;;
77520;SDS011;66633;47.628;19.158;2023-11-21T08:12:24;24.00;;;12.27;;
77520;SDS011;66633;47.628;19.158;2023-11-21T08:14:51;20.05;;;10.95;;
77520;SDS011;66633;47.628;19.158;2023-11-21T08:17:16;16.97;;;10.03;;
77520;SDS011;66633;47.628;19.158;2023-11-21T08:19:41;17.20;;;9.23;;
77520;SDS011;66633;47.628;19.158;2023-11-21T08:22:06;19.00;;;9.13;;
77520;SDS011;66633;47.628;19.158;2023-11-21T08:24:32;20.10;;;11.15;;
77520;SDS011;66633;47.628;19.158;2023-11-21T08:26:58;22.93;;;12.53;;
77520;SDS011;66633;47.628;19.158;2023-11-21T08:29:23;21.48;;;13.52;;
77520;SDS011;66633;47.628;19.158;2023-11-21T08:31:48;22.97;;;14.03;;
77520;SDS011;66633;47.628;19.158;2023-11-21T08:34:14;21.35;;;12.60;;
77520;SDS011;66633;47.628;19.158;2023-11-21T08:36:43;24.33;;;15.32;;
77520;SDS011;66633;47.628;19.158;2023-11-21T08:39:08;27.40;;;17.80;;
77520;SDS011;66633;47.628;19.158;2023-11-21T08:41:34;34.35;;;19.38;;
77520;SDS011;66633;47.628;19.158;2023-11-21T08:44:01;28.10;;;17.70;;
77520;SDS011;66633;47.628;19.158;2023-11-21T08:46:27;26.10;;;16.85;;
77520;SDS011;66633;47.628;19.158;2023-11-21T08:48:52;24.02;;;16.83;;
77520;SDS011;66633;47.628;19.158;2023-11-21T08:51:18;27.90;;;18.98;;
77520;SDS011;66633;47.628;19.158;2023-11-21T08:53:43;29.00;;;18.17;;
77520;SDS011;66633;47.628;19.158;2023-11-21T08:56:12;29.10;;;18.60;;
77520;SDS011;66633;47.628;19.158;2023-11-21T08:58:37;23.58;;;15.82;;
77520;SDS011;66633;47.628;19.158;2023-11-21T09:01:02;25.57;;;16.03;;
77520;SDS011;66633;47.628;19.158;2023-11-21T09:03:28;24.35;;;15.88;;
77520;SDS011;66633;47.628;19.158;2023-11-21T09:05:53;24.45;;;14.98;;
77520;SDS011;66633;47.628;19.158;2023-11-21T09:08:18;27.17;;;16.30;;
77520;SDS011;66633;47.628;19.158;2023-11-21T09:10:44;29.15;;;17.73;;
77520;SDS011;66633;47.628;19.158;2023-11-21T09:13:12;26.40;;;16.55;;
77520;SDS011;66633;47.628;19.158;2023-11-21T09:15:37;27.88;;;17.23;;
77520;SDS011;66633;47.628;19.158;2023-11-21T09:18:02;27.17;;;16.37;;
77520;SDS011;66633;47.628;19.158;2023-11-21T09:20:28;74.68;;;34.30;;
77520;SDS011;66633;47.628;19.158;2023-11-21T09:22:53;41.83;;;23.03;;
77520;SDS011;66633;47.628;19.158;2023-11-21T09:25:20;34.42;;;19.85;;
77520;SDS011;66633;47.628;19.158;2023-11-21T09:27:46;33.72;;;20.63;;
77520;SDS011;66633;47.628;19.158;2023-11-21T09:30:12;37.85;;;25.02;;
77520;SDS011;66633;47.628;19.158;2023-11-21T09:32:39;33.25;;;20.60;;
77520;SDS011;66633;47.628;19.158;2023-11-21T09:35:05;30.95;;;18.98;;
77520;SDS011;66633;47.628;19.158;2023-11-21T09:37:33;29.52;;;18.02;;
77520;SDS011;66633;47.628;19.158;2023-11-21T09:39:58;26.08;;;16.73;;
77520;SDS011;66633;47.628;19.158;2023-11-21T09:42:30;27.23;;;16.00;;
77520;SDS011;66633;47.628;19.158;2023-11-21T09:47:21;27.10;;;15.90;;
77520;SDS011;66633;47.628;19.158;2023-11-21T09:49:47;33.67;;;21.98;;
77520;SDS011;66633;47.628;19.158;2023-11-21T09:52:27;27.90;;;18.10;;
77520;SDS011;66633;47.628;19.158;2023-11-21T09:54:53;32.38;;;19.13;;
77520;SDS011;66633;47.628;19.158;2023-11-21T09:57:21;30.02;;;17.40;;
77520;SDS011;66633;47.628;19.158;2023-11-21T09:59:48;26.95;;;16.95;;
77520;SDS011;66633;47.628;19.158;2023-11-21T10:02:16;27.23;;;15.45;;
77520;SDS011;66633;47.628;19.158;2023-11-21T10:04:43;22.20;;;13.05;;
77520;SDS011;66633;47.628;19.158;2023-11-21T10:07:08;21.02;;;13.40;;
77520;SDS011;66633;47.628;19.158;2023-11-21T10:09:36;21.48;;;11.63;;
77520;SDS011;66633;47.628;19.158;2023-11-21T10:12:03;20.30;;;12.75;;
77520;SDS011;66633;47.628;19.158;2023-11-21T10:14:31;22.00;;;12.45;;
77520;SDS011;66633;47.628;19.158;2023-11-21T10:16:56;25.37;;;12.43;;
77520;SDS011;66633;47.628;19.158;2023-11-21T10:19:22;31.83;;;17.08;;
77520;SDS011;66633;47.628;19.158;2023-11-21T10:21:48;39.58;;;21.45;;
77520;SDS011;66633;47.628;19.158;2023-11-21T10:24:14;34.00;;;19.95;;
77520;SDS011;66633;47.628;19.158;2023-11-21T10:26:40;30.27;;;18.55;;
77520;SDS011;66633;47.628;19.158;2023-11-21T10:29:06;33.50;;;19.48;;
77520;SDS011;66633;47.628;19.158;2023-11-21T10:31:33;34.10;;;20.63;;
77520;SDS011;66633;47.628;19.158;2023-11-21T10:34:20;32.67;;;18.08;;
77520;SDS011;66633;47.628;19.158;2023-11-21T10:36:45;31.40;;;16.05;;
77520;SDS011;66633;47.628;19.158;2023-11-21T10:39:16;23.80;;;14.38;;
77520;SDS011;66633;47.628;19.158;2023-11-21T10:41:43;31.55;;;18.13;;
77520;SDS011;66633;47.628;19.158;2023-11-21T10:44:09;35.50;;;17.75;;
77520;SDS011;66633;47.628;19.158;2023-11-21T10:46:36;30.92;;;18.17;;
77520;SDS011;66633;47.628;19.158;2023-11-21T10:49:01;29.70;;;16.27;;
77520;SDS011;66633;47.628;19.158;2023-11-21T10:51:27;24.58;;;14.43;;
77520;SDS011;66633;47.628;19.158;2023-11-21T10:53:53;20.85;;;13.10;;
77520;SDS011;66633;47.628;19.158;2023-11-21T10:56:19;21.27;;;11.25;;
77520;SDS011;66633;47.628;19.158;2023-11-21T10:58:48;20.83;;;10.38;;
77520;SDS011;66633;47.628;19.158;2023-11-21T11:01:13;14.77;;;8.85;;
77520;SDS011;66633;47.628;19.158;2023-11-21T11:03:41;14.75;;;8.43;;
77520;SDS011;66633;47.628;19.158;2023-11-21T11:06:07;15.90;;;7.85;;
77520;SDS011;66633;47.628;19.158;2023-11-21T11:08:36;11.70;;;6.65;;
77520;SDS011;66633;47.628;19.158;2023-11-21T11:11:02;11.68;;;6.55;;
77520;SDS011;66633;47.628;19.158;2023-11-21T11:13:28;13.30;;;7.38;;
77520;SDS011;66633;47.628;19.158;2023-11-21T11:15:57;12.93;;;7.43;;
77520;SDS011;66633;47.628;19.158;2023-11-21T11:18:24;12.30;;;6.72;;
77520;SDS011;66633;47.628;19.158;2023-11-21T11:20:50;13.55;;;7.00;;
77520;SDS011;66633;47.628;19.158;2023-11-21T11:33:39;11.13;;;5.15;;
77520;SDS011;66633;47.628;19.158;2023-11-21T11:36:10;10.25;;;5.13;;
77520;SDS011;66633;47.628;19.158;2023-11-21T11:38:38;10.00;;;5.40;;
77520;SDS011;66633;47.628;19.158;2023-11-21T11:41:03;10.63;;;5.03;;
77520;SDS011;66633;47.628;19.158;2023-11-21T11:43:29;12.82;;;7.07;;
77520;SDS011;66633;47.628;19.158;2023-11-21T11:45:56;12.30;;;6.72;;
77520;SDS011;66633;47.628;19.158;2023-11-21T11:48:21;11.77;;;6.05;;
77520;SDS011;66633;47.628;19.158;2023-11-21T11:51:03;12.10;;;7.07;;
77520;SDS011;66633;47.628;19.158;2023-11-21T11:53:33;12.18;;;6.82;;
77520;SDS011;66633;47.628;19.158;2023-11-21T11:56:18;10.98;;;6.53;;
77520;SDS011;66633;47.628;19.158;2023-11-21T11:58:43;12.00;;;6.53;;
77520;SDS011;66633;47.628;19.158;2023-11-21T12:01:10;12.30;;;6.50;;
77520;SDS011;66633;47.628;19.158;2023-11-21T12:03:36;11.13;;;6.53;;
77520;SDS011;66633;47.628;19.158;2023-11-21T12:06:02;12.07;;;7.32;;
77520;SDS011;66633;47.628;19.158;2023-11-21T12:08:28;11.68;;;6.85;;
77520;SDS011;66633;47.628;19.158;2023-11-21T12:10:56;12.27;;;6.47;;
77520;SDS011;66633;47.628;19.158;2023-11-21T12:13:22;11.50;;;6.50;;
77520;SDS011;66633;47.628;19.158;2023-11-21T12:15:48;16.45;;;10.10;;
77520;SDS011;66633;47.628;19.158;2023-11-21T12:18:13;17.30;;;9.23;;
77520;SDS011;66633;47.628;19.158;2023-11-21T12:20:39;19.08;;;10.75;;
77520;SDS011;66633;47.628;19.158;2023-11-21T12:23:06;18.52;;;10.95;;
77520;SDS011;66633;47.628;19.158;2023-11-21T12:25:34;23.75;;;13.68;;
77520;SDS011;66633;47.628;19.158;2023-11-21T12:28:01;17.23;;;11.23;;
77520;SDS011;66633;47.628;19.158;2023-11-21T12:30:31;22.63;;;13.18;;
77520;SDS011;66633;47.628;19.158;2023-11-21T12:32:56;18.20;;;11.32;;
77520;SDS011;66633;47.628;19.158;2023-11-21T12:35:26;20.40;;;13.82;;
77520;SDS011;66633;47.628;19.158;2023-11-21T12:37:52;20.00;;;12.57;;
77520;SDS011;66633;47.628;19.158;2023-11-21T12:40:18;20.02;;;12.10;;
77520;SDS011;66633;47.628;19.158;2023-11-21T12:42:47;20.58;;;11.73;;
77520;SDS011;66633;47.628;19.158;2023-11-21T12:47:55;18.30;;;11.75;;
77520;SDS011;66633;47.628;19.158;2023-11-21T12:50:22;19.80;;;12.18;;
77520;SDS011;66633;47.628;19.158;2023-11-21T12:52:54;19.55;;;12.13;;
77520;SDS011;66633;47.628;19.158;2023-11-21T12:55:22;20.58;;;14.02;;
77520;SDS011;66633;47.628;19.158;2023-11-21T12:57:49;22.15;;;14.77;;
77520;SDS011;66633;47.628;19.158;2023-11-21T13:00:19;22.05;;;13.80;;
77520;SDS011;66633;47.628;19.158;2023-11-21T13:02:55;20.10;;;13.15;;
77520;SDS011;66633;47.628;19.158;2023-11-21T13:05:27;20.52;;;13.05;;
77520;SDS011;66633;47.628;19.158;2023-11-21T13:07:53;24.98;;;13.65;;
77520;SDS011;66633;47.628;19.158;2023-11-21T13:10:20;24.40;;;13.10;;
77520;SDS011;66633;47.628;19.158;2023-11-21T13:12:51;21.63;;;12.75;;
77520;SDS011;66633;47.628;19.158;2023-11-21T13:15:17;20.40;;;12.15;;
77520;SDS011;66633;47.628;19.158;2023-11-21T13:17:44;20.92;;;12.90;;
77520;SDS011;66633;47.628;19.158;2023-11-21T13:20:12;21.73;;;13.18;;
77520;SDS011;66633;47.628;19.158;2023-11-21T13:22:53;20.85;;;14.02;;
77520;SDS011;66633;47.628;19.158;2023-11-21T13:25:23;26.13;;;13.95;;
77520;SDS011;66633;47.628;19.158;2023-11-21T13:27:48;24.42;;;14.43;;
77520;SDS011;66633;47.628;19.158;2023-11-21T13:30:14;48.90;;;27.83;;
77520;SDS011;66633;47.628;19.158;2023-11-21T13:32:48;43.15;;;23.75;;
77520;SDS011;66633;47.628;19.158;2023-11-21T13:35:16;33.28;;;17.85;;
77520;SDS011;66633;47.628;19.158;2023-11-21T13:37:55;30.60;;;17.38;;
77520;SDS011;66633;47.628;19.158;2023-11-21T13:40:21;24.95;;;15.93;;
77520;SDS011;66633;47.628;19.158;2023-11-21T13:42:53;26.17;;;14.90;;
77520;SDS011;66633;47.628;19.158;2023-11-21T13:45:20;23.20;;;14.93;;
77520;SDS011;66633;47.628;19.158;2023-11-21T13:47:47;23.17;;;14.88;;
77520;SDS011;66633;47.628;19.158;2023-11-21T13:50:13;23.30;;;14.63;;
77520;SDS011;66633;47.628;19.158;2023-11-21T13:52:44;22.08;;;13.18;;
77520;SDS011;66633;47.628;19.158;2023-11-21T13:55:10;26.02;;;15.23;;
77520;SDS011;66633;47.628;19.158;2023-11-21T13:57:40;26.52;;;15.02;;
77520;SDS011;66633;47.628;19.158;2023-11-21T14:00:09;30.35;;;16.80;;
77520;SDS011;66633;47.628;19.158;2023-11-21T14:02:55;34.15;;;18.10;;
77520;SDS011;66633;47.628;19.158;2023-11-21T14:05:26;28.73;;;16.92;;
77520;SDS011;66633;47.628;19.158;2023-11-21T14:07:54;31.38;;;16.40;;
77520;SDS011;66633;47.628;19.158;2023-11-21T14:10:21;26.42;;;14.82;;
77520;SDS011;66633;47.628;19.158;2023-11-21T14:12:48;25.65;;;12.80;;
77520;SDS011;66633;47.628;19.158;2023-11-21T14:15:13;17.77;;;10.88;;
77520;SDS011;66633;47.628;19.158;2023-11-21T14:17:42;20.42;;;11.13;;
77520;SDS011;66633;47.628;19.158;2023-11-21T14:20:08;18.55;;;10.75;;
77520;SDS011;66633;47.628;19.158;2023-11-21T14:22:40;18.88;;;11.27;;
77520;SDS011;66633;47.628;19.158;2023-11-21T14:25:06;17.00;;;10.13;;